Airport ID:KMHV
Update Time (UTC):22/09/2018 07:52
Wind Speed (Knots):6
Wind Direction (Magnetic):270
Temperature (°C):22
Dew Point (°C):1
Humidity (%):26
Altimeter (inHg):30.05
Density Altitude (Feet):4100
Visibility (Miles):10+
Clouds (Hundreds of feet):CLR
Present Weather:
METAR:METAR KMHV 220740Z AUTO 28009KT 10SM CLR 22/01 A3005 RMK A01

The data displayed is for advisory purposes only and is not to be used for flight planning or operations.

This page is not automatically refreshed. Reload the page to see current data.